Adolph, Minnesota
Current Conditions -  °F | °C
As of 7:55 AM on Saturday 01 Nov 2014 (Local Time) from KDLH Reporting Station
Few Clouds Few Clouds  
Wind Chill: 16°   Ceiling: Unl
Heat Index: 23°   Visibility: 10mi
Dew Point: 15°   Wind: 6mph
Humidity: 72%   Direction: 200°SSW
Pressure: 30.39"   Gusts: NA
Location:  46.78°N, 92.28°W
Report Text: KDLH 011255Z 20005KT 10SM FEW030 M05/M09 A3039 RMK AO2 SLP316 T10501094 $
Loading
Personal Weather Stations






























Interactive Weather Map
Tropical Storm Tracking
New forecast layout! Learn more

10-Day Weather Forecast

Advertisements
Track Severe Weather on mobile